Lady Dee II — WEC5011 — position and weather

sailwx.info

Track history (hours):
 
Tides and Currents Weather Stations Pressure Air Temp Water Temp Dewpoint Dewpoint Depression Visibility Wind Speed Wind Dir Waves Ship Positions

Lady Dee II

Last reported at 2017-Dec-08 15:25 UTC. Time now 2017-Dec-15 00:53 UTC.
Position N 39°50' W 074°11'.

Length 13 m.

Type: Pleasure craft. MMSI: 367034370.

Date/timePositionNaut miles runAvg speedWind from/ knotsBaromVisibWave heightAir tempDewpointWater temp
2017-Dec-08 15:25N 39°50' W 074°11'1 3.4
2017-Dec-08 14:59N 39°49' W 074°11'0 0.8
2017-Dec-08 14:29N 39°49' W 074°10'913.1
2017-Dec-08 13:49N 39°43' W 074°02'1 1.8
2017-Dec-08 13:30N 39°43' W 074°03'3 5.5
2017-Dec-08 13:00N 39°41' W 074°05'2 3.1
2017-Dec-08 12:29N 39°40' W 074°06'5 9.8
2017-Dec-08 12:00N 39°45' W 074°05'6 7.6
2017-Dec-08 11:11N 39°49' W 074°11'0 0.0
2017-Dec-08 10:47N 39°49' W 074°11'0 0.0
2017-Dec-08 10:23N 39°49' W 074°11'0 0.0
2017-Dec-08 09:56N 39°49' W 074°11'0 0.0
2017-Dec-08 09:14N 39°49' W 074°11'0 0.0
2017-Dec-08 08:56N 39°49' W 074°11'0 0.0
2017-Dec-08 07:56N 39°49' W 074°11'0 0.0
2017-Dec-08 07:23N 39°49' W 074°11'0 0.0
2017-Dec-08 06:50N 39°49' W 074°11'0 0.0
2017-Dec-08 06:27N 39°49' W 074°11'0 0.0
2017-Dec-08 05:44N 39°49' W 074°11'0 0.0
2017-Dec-08 05:26N 39°49' W 074°11'0 0.0
2017-Dec-08 04:47N 39°49' W 074°11'0 0.0
2017-Dec-08 04:23N 39°49' W 074°11'0 0.0
2017-Dec-08 03:59N 39°49' W 074°11'0 0.0
2017-Dec-08 03:23N 39°49' W 074°11'0 0.0
2017-Dec-08 02:35N 39°49' W 074°11'0 0.0
2017-Dec-08 02:23N 39°49' W 074°11'0 0.0
2017-Dec-08 01:59N 39°49' W 074°11'0 0.0
2017-Dec-08 01:26N 39°49' W 074°11'0 0.0
2017-Dec-08 00:50N 39°49' W 074°11'0 0.0
2017-Dec-08 00:29N 39°49' W 074°11'0 0.0
2017-Dec-07 23:50N 39°49' W 074°11'0 0.0
2017-Dec-07 23:05N 39°49' W 074°11'0 0.0
2017-Dec-07 20:50N 39°49' W 074°11'0 0.0
2017-Dec-07 20:23N 39°49' W 074°11'0 0.0
2017-Dec-07 19:59N 39°49' W 074°11'0 0.0
2017-Dec-07 19:29N 39°49' W 074°11'0 0.0
2017-Dec-07 18:53N 39°49' W 074°11'0 0.0
2017-Dec-07 18:29N 39°49' W 074°11'0 0.0
2017-Dec-07 17:59N 39°49' W 074°11'0 0.0
2017-Dec-07 17:23N 39°49' W 074°11'0 0.0
2017-Dec-07 16:44N 39°49' W 074°11'0 0.0
2017-Dec-07 16:23N 39°49' W 074°11'0 0.0
2017-Dec-07 15:58N 39°49' W 074°11'0 0.0
2017-Dec-07 15:26N 39°49' W 074°11'0 0.0
2017-Dec-07 14:50N 39°49' W 074°11'0 0.0
2017-Dec-07 14:26N 39°49' W 074°11'0 0.0
2017-Dec-07 13:50N 39°49' W 074°11'0 0.0
2017-Dec-07 13:27N 39°49' W 074°11'0 0.0
2017-Dec-07 12:56N 39°49' W 074°11'0 0.0
2017-Dec-07 12:26N 39°49' W 074°11'0 0.0
2017-Dec-07 11:56N 39°49' W 074°11'0 0.0
2017-Dec-07 11:20N 39°49' W 074°11'0 0.0
2017-Dec-07 10:56N 39°49' W 074°11'0 0.0
2017-Dec-07 10:26N 39°49' W 074°11'0 0.0
2017-Dec-07 09:56N 39°49' W 074°11'0 0.0
2017-Dec-07 09:26N 39°49' W 074°11'0 0.0
2017-Dec-07 08:56N 39°49' W 074°11'0 0.0
2017-Dec-07 08:20N 39°49' W 074°11'0 0.0
2017-Dec-07 07:50N 39°49' W 074°11'0 0.0
2017-Dec-07 07:20N 39°49' W 074°11'0 0.0
2017-Dec-07 06:44N 39°49' W 074°11'0 0.0
2017-Dec-07 06:26N 39°49' W 074°11'0 0.0
2017-Dec-07 05:44N 39°49' W 074°11'0 0.0
2017-Dec-07 05:26N 39°49' W 074°11'0 0.0
2017-Dec-07 04:56N 39°49' W 074°11'0 0.0
2017-Dec-07 04:20N 39°49' W 074°11'0 0.0
2017-Dec-07 03:56N 39°49' W 074°11'0 0.0
2017-Dec-07 03:26N 39°49' W 074°11'0 0.0
2017-Dec-07 02:56N 39°49' W 074°11'0 0.0
2017-Dec-07 02:29N 39°49' W 074°11'0 0.0
2017-Dec-07 01:59N 39°49' W 074°11'0 0.0
2017-Dec-07 01:29N 39°49' W 074°11'0 0.0
2017-Dec-07 00:59N 39°49' W 074°11'0 0.0
2017-Dec-07 00:29N 39°49' W 074°11'0 0.0
2017-Dec-06 23:47N 39°49' W 074°11'0 0.0
2017-Dec-06 23:23N 39°49' W 074°11'0 0.0
2017-Dec-06 22:59N 39°49' W 074°11'0 0.0
2017-Dec-06 22:29N 39°49' W 074°11'0 0.0
2017-Dec-06 21:59N 39°49' W 074°11'0 0.0
2017-Dec-06 21:29N 39°49' W 074°11'0 0.0
2017-Dec-06 20:35N 39°49' W 074°11'  
2017-Dec-04 10:07N 39°49' W 074°11'0 0.0
2017-Dec-04 09:49N 39°49' W 074°11'0 0.0
2017-Dec-04 09:25N 39°49' W 074°11'0 0.0
2017-Dec-04 08:55N 39°49' W 074°11'0 0.0
2017-Dec-04 08:25N 39°49' W 074°11'0 0.0
2017-Dec-04 07:55N 39°49' W 074°11'0 0.0
2017-Dec-04 07:25N 39°49' W 074°11'0 0.0
2017-Dec-04 06:55N 39°49' W 074°11'0 0.0
2017-Dec-04 06:25N 39°49' W 074°11'0 0.0
2017-Dec-04 05:49N 39°49' W 074°11'0 0.0
2017-Dec-04 05:19N 39°49' W 074°11'0 0.0
2017-Dec-04 04:55N 39°49' W 074°11'0 0.0
2017-Dec-04 04:25N 39°49' W 074°11'0 0.0
2017-Dec-04 03:49N 39°49' W 074°11'0 0.0
2017-Dec-04 02:52N 39°49' W 074°11'0 0.0
2017-Dec-04 02:23N 39°49' W 074°11'0 0.0
2017-Dec-04 01:46N 39°49' W 074°11'0 0.0
2017-Dec-04 01:22N 39°49' W 074°11'0 0.0
2017-Dec-04 00:58N 39°49' W 074°11'0 0.0
2017-Dec-04 00:28N 39°49' W 074°11'0 0.0
2017-Dec-03 23:52N 39°49' W 074°11'0 0.0
2017-Dec-03 23:28N 39°49' W 074°11'0 0.0
2017-Dec-03 22:52N 39°49' W 074°11'0 0.0
2017-Dec-03 22:04N 39°49' W 074°11'0 0.0
2017-Dec-03 20:58N 39°49' W 074°11'0 0.0
2017-Dec-03 20:28N 39°49' W 074°11'0 0.0
2017-Dec-03 19:52N 39°49' W 074°11'0 0.0
2017-Dec-03 19:28N 39°49' W 074°11'0 0.0
2017-Dec-03 18:58N 39°49' W 074°11'0 0.0
2017-Dec-03 18:28N 39°49' W 074°11'0 0.0
2017-Dec-03 17:58N 39°49' W 074°11'0 0.0
2017-Dec-03 17:11N 39°49' W 074°11'0 0.0
2017-Dec-03 16:58N 39°49' W 074°11'0 0.0
2017-Dec-03 16:28N 39°49' W 074°11'2 4.2
2017-Dec-03 15:59N 39°48' W 074°09'816.2
2017-Dec-03 15:30N 39°40' W 074°07'0 0.7
2017-Dec-03 15:00N 39°40' W 074°07'2 3.1
2017-Dec-03 14:30N 39°41' W 074°06'1 1.2
2017-Dec-03 14:00N 39°41' W 074°06'2 4.3
2017-Dec-03 13:30N 39°44' W 074°05'1 2.3
2017-Dec-03 13:00N 39°45' W 074°05'0 0.3
2017-Dec-03 12:30N 39°45' W 074°05'0 0.6
2017-Dec-03 11:59N 39°45' W 074°05'5 9.5
2017-Dec-03 11:30N 39°48' W 074°09'2 3.1
2017-Dec-03 10:59N 39°49' W 074°11'0 0.0
2017-Dec-03 10:29N 39°49' W 074°11'0 0.0
2017-Dec-03 09:47N 39°49' W 074°11'0 0.0
2017-Dec-03 09:11N 39°49' W 074°11'0 0.0
2017-Dec-03 08:59N 39°49' W 074°11'0 0.0
2017-Dec-03 08:23N 39°49' W 074°11'0 0.0
2017-Dec-03 07:59N 39°49' W 074°11'0 0.0
2017-Dec-03 07:29N 39°49' W 074°11'0 0.0
2017-Dec-03 06:59N 39°49' W 074°11'0 0.0
2017-Dec-03 06:29N 39°49' W 074°11'0 0.0
2017-Dec-03 06:00N 39°49' W 074°11'0 0.0
2017-Dec-03 05:20N 39°49' W 074°11'0 0.0
2017-Dec-03 04:56N 39°49' W 074°11'0 0.0
2017-Dec-03 04:14N 39°49' W 074°11'0 0.0
2017-Dec-03 03:56N 39°49' W 074°11'0 0.0
2017-Dec-03 03:26N 39°49' W 074°11'0 0.0
2017-Dec-03 02:55N 39°49' W 074°11'0 0.0
2017-Dec-03 02:25N 39°49' W 074°11'0 0.0
2017-Dec-03 01:50N 39°49' W 074°11'0 0.0
2017-Dec-03 01:25N 39°49' W 074°11'0 0.0
2017-Dec-03 00:55N 39°49' W 074°11'0 0.0
2017-Dec-03 00:25N 39°49' W 074°11'0 0.0
2017-Dec-02 23:55N 39°49' W 074°11'0 0.0
2017-Dec-02 23:25N 39°49' W 074°11'0 0.0
2017-Dec-02 22:55N 39°49' W 074°11'0 0.0
2017-Dec-02 22:25N 39°49' W 074°11'0 0.0
2017-Dec-02 21:31N 39°49' W 074°11'0 0.0
2017-Dec-02 21:19N 39°49' W 074°11'0 0.0
2017-Dec-02 20:55N 39°49' W 074°11'0 0.0
2017-Dec-02 20:13N 39°49' W 074°11'0 0.0
2017-Dec-02 19:49N 39°49' W 074°11'1 2.4
2017-Dec-02 19:30N 39°49' W 074°10'1 2.6
2017-Dec-02 18:57N 39°48' W 074°11'1 1.9
2017-Dec-02 18:30N 39°48' W 074°10'713.5
2017-Dec-02 18:00N 39°42' W 074°06'1 1.8
2017-Dec-02 17:30N 39°41' W 074°05'0 0.9
2017-Dec-02 17:00N 39°41' W 074°05'1 1.9
2017-Dec-02 16:30N 39°42' W 074°05'9 2.6
2017-Dec-02 12:53N 39°51' W 074°05'922.5
2017-Dec-02 12:29N 39°42' W 074°06'1 2.1
2017-Dec-02 11:59N 39°41' W 074°06'612.0
2017-Dec-02 11:30N 39°47' W 074°07'3 5.9
2017-Dec-02 10:55N 39°49' W 074°11'0 0.0
2017-Dec-02 10:25N 39°49' W 074°11'0 0.0
2017-Dec-02 09:55N 39°49' W 074°11'0 0.0
2017-Dec-02 09:25N 39°49' W 074°11'0 0.0
2017-Dec-02 08:55N 39°49' W 074°11'0 0.0
2017-Dec-02 08:19N 39°49' W 074°11'0 0.0
2017-Dec-02 07:55N 39°49' W 074°11'0 0.0
2017-Dec-02 07:25N 39°49' W 074°11'0 0.0
2017-Dec-02 06:55N 39°49' W 074°11'0 0.0
2017-Dec-02 06:19N 39°49' W 074°11'0 0.0
2017-Dec-02 05:55N 39°49' W 074°11'0 0.0
2017-Dec-02 05:25N 39°49' W 074°11'0 0.0
2017-Dec-02 04:55N 39°49' W 074°11'0 0.0
2017-Dec-02 04:25N 39°49' W 074°11'0 0.0
2017-Dec-02 03:49N 39°49' W 074°11'0 0.0
2017-Dec-02 03:25N 39°49' W 074°11'0 0.0
2017-Dec-02 02:58N 39°49' W 074°11'0 0.0
2017-Dec-02 02:28N 39°49' W 074°11'0 0.0
2017-Dec-02 01:58N 39°49' W 074°11'0 0.0
2017-Dec-02 01:28N 39°49' W 074°11'0 0.0
2017-Dec-02 00:58N 39°49' W 074°11'0 0.0
2017-Dec-02 00:28N 39°49' W 074°11'0 0.0
2017-Dec-01 23:58N 39°49' W 074°11'0 0.0
2017-Dec-01 23:28N 39°49' W 074°11'0 0.0
2017-Dec-01 22:52N 39°49' W 074°11'0 0.0
2017-Dec-01 22:28N 39°49' W 074°11'0 0.0
2017-Dec-01 21:58N 39°49' W 074°11'0 0.0
2017-Dec-01 21:28N 39°49' W 074°11'0 0.0
2017-Dec-01 20:52N 39°49' W 074°11'0 0.0
2017-Dec-01 20:28N 39°49' W 074°11'0 0.0
2017-Dec-01 19:58N 39°49' W 074°11'0 0.0
2017-Dec-01 19:28N 39°49' W 074°11'0 0.0
2017-Dec-01 18:58N 39°49' W 074°11'0 0.0
2017-Dec-01 18:22N 39°49' W 074°11'0 0.0
2017-Dec-01 17:58N 39°49' W 074°11'0 0.0
2017-Dec-01 17:28N 39°49' W 074°11'0 0.0
2017-Dec-01 16:58N 39°49' W 074°11'4 8.9
2017-Dec-01 16:29N 39°46' W 074°07'4 9.1
2017-Dec-01 16:00N 39°41' W 074°05'1 1.0
2017-Dec-01 15:30N 39°42' W 074°05'1 2.0
2017-Dec-01 15:00N 39°41' W 074°05'0 0.8
2017-Dec-01 14:30N 39°41' W 074°05'6 2.3
2017-Dec-01 11:44N 39°47' W 074°04'210.6
2017-Dec-01 11:30N 39°47' W 074°07'3 4.5
2017-Dec-01 10:50N 39°49' W 074°11'0 0.0
2017-Dec-01 10:20N 39°49' W 074°11'0 0.0
2017-Dec-01 09:56N 39°49' W 074°11'0 0.0
2017-Dec-01 09:29N 39°49' W 074°11'0 0.0
2017-Dec-01 08:53N 39°49' W 074°11'0 0.0
2017-Dec-01 08:23N 39°49' W 074°11'0 0.0
2017-Dec-01 07:59N 39°49' W 074°11'0 0.0
2017-Dec-01 07:20N 39°49' W 074°11'0 0.0
2017-Dec-01 06:56N 39°49' W 074°11'0 0.0
2017-Dec-01 06:26N 39°49' W 074°11'0 0.0
2017-Dec-01 05:56N 39°49' W 074°11'0 0.0
2017-Dec-01 05:20N 39°49' W 074°11'0 0.0
2017-Dec-01 04:44N 39°49' W 074°11'0 0.0
2017-Dec-01 04:20N 39°49' W 074°11'0 0.0
2017-Dec-01 03:56N 39°49' W 074°11'0 0.0
2017-Dec-01 03:29N 39°49' W 074°11'0 0.0
2017-Dec-01 02:11N 39°49' W 074°11'0 0.0
2017-Nov-30 22:14N 39°49' W 074°11'0 0.0
2017-Nov-30 21:56N 39°49' W 074°11'0 0.0
2017-Nov-30 21:11N 39°49' W 074°11'0 0.0
2017-Nov-30 20:56N 39°49' W 074°11'0 0.0
2017-Nov-30 20:20N 39°49' W 074°11'0 0.0
2017-Nov-30 19:56N 39°49' W 074°11'0 0.0
2017-Nov-30 18:44N 39°49' W 074°11'0 0.0
2017-Nov-30 18:17N 39°49' W 074°11'0 0.0
2017-Nov-30 17:59N 39°49' W 074°11'0 0.0
2017-Nov-30 17:26N 39°49' W 074°11'0 0.0
2017-Nov-30 16:02N 39°49' W 074°11'0 0.0
2017-Nov-30 15:38N 39°49' W 074°11'0 0.0
2017-Nov-30 15:26N 39°49' W 074°11'0 0.0
2017-Nov-30 14:44N 39°49' W 074°11'0 0.0
2017-Nov-30 14:26N 39°49' W 074°11'0 0.0
2017-Nov-30 13:11N 39°49' W 074°11'0 0.0
2017-Nov-30 12:53N 39°49' W 074°11'0 0.0
2017-Nov-30 12:20N 39°49' W 074°11'0 0.0
2017-Nov-30 11:56N 39°49' W 074°11'0 0.0
2017-Nov-30 11:20N 39°49' W 074°11'0 0.0
2017-Nov-30 10:56N 39°49' W 074°11'0 0.0
2017-Nov-30 10:24N 39°49' W 074°11'0 0.0
2017-Nov-30 09:51N 39°49' W 074°11'0 0.0
2017-Nov-30 08:57N 39°49' W 074°11'0 0.0
2017-Nov-30 08:09N 39°49' W 074°11'0 0.0
2017-Nov-30 07:57N 39°49' W 074°11'0 0.0
2017-Nov-30 07:27N 39°49' W 074°11'0 0.0
2017-Nov-30 06:57N 39°49' W 074°11'0 0.0
2017-Nov-30 06:27N 39°49' W 074°11'0 0.0
2017-Nov-30 05:39N 39°49' W 074°11'0 0.0
2017-Nov-30 05:15N 39°49' W 074°11'0 0.0
2017-Nov-30 04:57N 39°49' W 074°11'0 0.0
2017-Nov-30 04:27N 39°49' W 074°11'0 0.0
2017-Nov-30 03:51N 39°49' W 074°11'0 0.0
2017-Nov-30 03:27N 39°49' W 074°11'0 0.0
2017-Nov-30 02:57N 39°49' W 074°11'0 0.0
2017-Nov-30 02:21N 39°49' W 074°11'0 0.0
2017-Nov-30 01:51N 39°49' W 074°11'0 0.0
2017-Nov-30 01:21N 39°49' W 074°11'0 0.0
2017-Nov-30 00:45N 39°49' W 074°11'0 0.0
2017-Nov-30 00:27N 39°49' W 074°11'0 0.0
2017-Nov-29 23:51N 39°49' W 074°11'0 0.0
2017-Nov-29 23:24N 39°49' W 074°11'0 0.0
2017-Nov-29 22:54N 39°49' W 074°11'0 0.0
2017-Nov-29 22:24N 39°49' W 074°11'0 0.0
2017-Nov-29 22:00N 39°49' W 074°11'0 0.0
2017-Nov-29 21:30N 39°49' W 074°11'0 0.0
2017-Nov-29 21:00N 39°49' W 074°11'0 0.0
2017-Nov-29 19:54N 39°49' W 074°11'0 0.0
2017-Nov-29 19:24N 39°49' W 074°11'0 0.0
2017-Nov-29 19:00N 39°49' W 074°11'0 0.0
2017-Nov-29 18:24N 39°49' W 074°11'0 0.0
2017-Nov-29 18:00N 39°49' W 074°11'0 0.0
2017-Nov-29 17:24N 39°49' W 074°11'0 0.0
2017-Nov-29 16:36N 39°49' W 074°11'0 0.0
2017-Nov-29 16:24N 39°49' W 074°11'0 0.0
2017-Nov-29 15:54N 39°49' W 074°11'0 0.0
2017-Nov-29 15:30N 39°49' W 074°11'0 0.0
2017-Nov-29 14:54N 39°49' W 074°11'2 3.8
2017-Nov-29 14:29N 39°47' W 074°09'4 8.9
2017-Nov-29 14:00N 39°49' W 074°04'611.6
2017-Nov-29 13:30N 39°54' W 074°01'2 2.4
2017-Nov-29 12:41N 39°52' W 074°02'0 2.5
2017-Nov-29 12:30N 39°52' W 074°02'610.2
2017-Nov-29 11:57N 39°47' W 074°05'5 4.6
2017-Nov-29 10:54N 39°49' W 074°11'0 0.0
2017-Nov-29 10:30N 39°49' W 074°11'0 0.0
2017-Nov-29 10:00N 39°49' W 074°11'0 0.0
2017-Nov-29 06:51N 39°49' W 074°11'0 0.0
2017-Nov-29 06:21N 39°49' W 074°11'0 0.0
2017-Nov-29 05:57N 39°49' W 074°11'0 0.0
2017-Nov-29 05:09N 39°49' W 074°11'0 0.0
2017-Nov-29 04:15N 39°49' W 074°11'0 0.0
2017-Nov-29 03:51N 39°49' W 074°11'0 0.0
2017-Nov-29 03:27N 39°49' W 074°11'0 0.0
2017-Nov-29 02:57N 39°49' W 074°11'0 0.0
2017-Nov-29 02:27N 39°49' W 074°11'0 0.0
2017-Nov-29 01:18N 39°49' W 074°11'0 0.0
2017-Nov-29 00:39N 39°49' W 074°11'0 0.0
2017-Nov-29 00:21N 39°49' W 074°11'0 0.0
2017-Nov-28 23:51N 39°49' W 074°11'0 0.0
2017-Nov-28 23:27N 39°49' W 074°11'0 0.0
2017-Nov-28 22:57N 39°49' W 074°11'0 0.0
2017-Nov-28 22:27N 39°49' W 074°11'0 0.0
2017-Nov-28 21:39N 39°49' W 074°11'0 0.0
2017-Nov-28 21:27N 39°49' W 074°11'0 0.0
2017-Nov-28 20:45N 39°49' W 074°11'0 0.0
2017-Nov-28 20:30N 39°49' W 074°11'0 0.0
2017-Nov-28 19:42N 39°49' W 074°11'0 0.0
2017-Nov-28 18:48N 39°49' W 074°11'0 0.0
2017-Nov-28 18:30N 39°49' W 074°11'0 0.0
2017-Nov-28 17:54N 39°49' W 074°11'0 0.0
2017-Nov-28 17:30N 39°49' W 074°11'0 0.0
2017-Nov-28 16:57N 39°49' W 074°11'0 0.0
2017-Nov-28 16:27N 39°49' W 074°11'0 0.0
2017-Nov-28 15:57N 39°49' W 074°11'  
Track history (hours):
 
Tides and Currents Weather Stations Pressure Air Temp Water Temp Dewpoint Dewpoint Depression Visibility Wind Speed Wind Dir Waves Ship Positions

Lady Dee II

Last reported at 2017-Dec-08 15:25 UTC. Time now 2017-Dec-15 00:53 UTC.
Position N 39°50' W 074°11'.

Length 13 m.

Type: Pleasure craft. MMSI: 367034370.

Date/timePositionNaut miles runAvg speedWind from/ knotsBaromVisibWave heightAir tempDewpointWater temp
2017-Dec-08 15:25N 39°50' W 074°11'1 3.4
2017-Dec-08 14:59N 39°49' W 074°11'0 0.8
2017-Dec-08 14:29N 39°49' W 074°10'913.1
2017-Dec-08 13:49N 39°43' W 074°02'1 1.8
2017-Dec-08 13:30N 39°43' W 074°03'3 5.5
2017-Dec-08 13:00N 39°41' W 074°05'2 3.1
2017-Dec-08 12:29N 39°40' W 074°06'5 9.8
2017-Dec-08 12:00N 39°45' W 074°05'6 7.6
2017-Dec-08 11:11N 39°49' W 074°11'0 0.0
2017-Dec-08 10:47N 39°49' W 074°11'0 0.0
2017-Dec-08 10:23N 39°49' W 074°11'0 0.0
2017-Dec-08 09:56N 39°49' W 074°11'0 0.0
2017-Dec-08 09:14N 39°49' W 074°11'0 0.0
2017-Dec-08 08:56N 39°49' W 074°11'0 0.0
2017-Dec-08 07:56N 39°49' W 074°11'0 0.0
2017-Dec-08 07:23N 39°49' W 074°11'0 0.0
2017-Dec-08 06:50N 39°49' W 074°11'0 0.0
2017-Dec-08 06:27N 39°49' W 074°11'0 0.0
2017-Dec-08 05:44N 39°49' W 074°11'0 0.0
2017-Dec-08 05:26N 39°49' W 074°11'0 0.0
2017-Dec-08 04:47N 39°49' W 074°11'0 0.0
2017-Dec-08 04:23N 39°49' W 074°11'0 0.0
2017-Dec-08 03:59N 39°49' W 074°11'0 0.0
2017-Dec-08 03:23N 39°49' W 074°11'0 0.0
2017-Dec-08 02:35N 39°49' W 074°11'0 0.0
2017-Dec-08 02:23N 39°49' W 074°11'0 0.0
2017-Dec-08 01:59N 39°49' W 074°11'0 0.0
2017-Dec-08 01:26N 39°49' W 074°11'0 0.0
2017-Dec-08 00:50N 39°49' W 074°11'0 0.0
2017-Dec-08 00:29N 39°49' W 074°11'0 0.0
2017-Dec-07 23:50N 39°49' W 074°11'0 0.0
2017-Dec-07 23:05N 39°49' W 074°11'0 0.0
2017-Dec-07 20:50N 39°49' W 074°11'0 0.0
2017-Dec-07 20:23N 39°49' W 074°11'0 0.0
2017-Dec-07 19:59N 39°49' W 074°11'0 0.0
2017-Dec-07 19:29N 39°49' W 074°11'0 0.0
2017-Dec-07 18:53N 39°49' W 074°11'0 0.0
2017-Dec-07 18:29N 39°49' W 074°11'0 0.0
2017-Dec-07 17:59N 39°49' W 074°11'0 0.0
2017-Dec-07 17:23N 39°49' W 074°11'0 0.0
2017-Dec-07 16:44N 39°49' W 074°11'0 0.0
2017-Dec-07 16:23N 39°49' W 074°11'0 0.0
2017-Dec-07 15:58N 39°49' W 074°11'0 0.0
2017-Dec-07 15:26N 39°49' W 074°11'0 0.0
2017-Dec-07 14:50N 39°49' W 074°11'0 0.0
2017-Dec-07 14:26N 39°49' W 074°11'0 0.0
2017-Dec-07 13:50N 39°49' W 074°11'0 0.0
2017-Dec-07 13:27N 39°49' W 074°11'0 0.0
2017-Dec-07 12:56N 39°49' W 074°11'0 0.0
2017-Dec-07 12:26N 39°49' W 074°11'0 0.0
2017-Dec-07 11:56N 39°49' W 074°11'0 0.0
2017-Dec-07 11:20N 39°49' W 074°11'0 0.0
2017-Dec-07 10:56N 39°49' W 074°11'0 0.0
2017-Dec-07 10:26N 39°49' W 074°11'0 0.0
2017-Dec-07 09:56N 39°49' W 074°11'0 0.0
2017-Dec-07 09:26N 39°49' W 074°11'0 0.0
2017-Dec-07 08:56N 39°49' W 074°11'0 0.0
2017-Dec-07 08:20N 39°49' W 074°11'0 0.0
2017-Dec-07 07:50N 39°49' W 074°11'0 0.0
2017-Dec-07 07:20N 39°49' W 074°11'0 0.0
2017-Dec-07 06:44N 39°49' W 074°11'0 0.0
2017-Dec-07 06:26N 39°49' W 074°11'0 0.0
2017-Dec-07 05:44N 39°49' W 074°11'0 0.0
2017-Dec-07 05:26N 39°49' W 074°11'0 0.0
2017-Dec-07 04:56N 39°49' W 074°11'0 0.0
2017-Dec-07 04:20N 39°49' W 074°11'0 0.0
2017-Dec-07 03:56N 39°49' W 074°11'0 0.0
2017-Dec-07 03:26N 39°49' W 074°11'0 0.0
2017-Dec-07 02:56N 39°49' W 074°11'0 0.0
2017-Dec-07 02:29N 39°49' W 074°11'0 0.0
2017-Dec-07 01:59N 39°49' W 074°11'0 0.0
2017-Dec-07 01:29N 39°49' W 074°11'0 0.0
2017-Dec-07 00:59N 39°49' W 074°11'0 0.0
2017-Dec-07 00:29N 39°49' W 074°11'0 0.0
2017-Dec-06 23:47N 39°49' W 074°11'0 0.0
2017-Dec-06 23:23N 39°49' W 074°11'0 0.0
2017-Dec-06 22:59N 39°49' W 074°11'0 0.0
2017-Dec-06 22:29N 39°49' W 074°11'0 0.0
2017-Dec-06 21:59N 39°49' W 074°11'0 0.0
2017-Dec-06 21:29N 39°49' W 074°11'0 0.0
2017-Dec-06 20:35N 39°49' W 074°11'  
2017-Dec-04 10:07N 39°49' W 074°11'0 0.0
2017-Dec-04 09:49N 39°49' W 074°11'0 0.0
2017-Dec-04 09:25N 39°49' W 074°11'0 0.0
2017-Dec-04 08:55N 39°49' W 074°11'0 0.0
2017-Dec-04 08:25N 39°49' W 074°11'0 0.0
2017-Dec-04 07:55N 39°49' W 074°11'0 0.0
2017-Dec-04 07:25N 39°49' W 074°11'0 0.0
2017-Dec-04 06:55N 39°49' W 074°11'0 0.0
2017-Dec-04 06:25N 39°49' W 074°11'0 0.0
2017-Dec-04 05:49N 39°49' W 074°11'0 0.0
2017-Dec-04 05:19N 39°49' W 074°11'0 0.0
2017-Dec-04 04:55N 39°49' W 074°11'0 0.0
2017-Dec-04 04:25N 39°49' W 074°11'0 0.0
2017-Dec-04 03:49N 39°49' W 074°11'0 0.0
2017-Dec-04 02:52N 39°49' W 074°11'0 0.0
2017-Dec-04 02:23N 39°49' W 074°11'0 0.0
2017-Dec-04 01:46N 39°49' W 074°11'0 0.0
2017-Dec-04 01:22N 39°49' W 074°11'0 0.0
2017-Dec-04 00:58N 39°49' W 074°11'0 0.0
2017-Dec-04 00:28N 39°49' W 074°11'0 0.0
2017-Dec-03 23:52N 39°49' W 074°11'0 0.0
2017-Dec-03 23:28N 39°49' W 074°11'0 0.0
2017-Dec-03 22:52N 39°49' W 074°11'0 0.0
2017-Dec-03 22:04N 39°49' W 074°11'0 0.0
2017-Dec-03 20:58N 39°49' W 074°11'0 0.0
2017-Dec-03 20:28N 39°49' W 074°11'0 0.0
2017-Dec-03 19:52N 39°49' W 074°11'0 0.0
2017-Dec-03 19:28N 39°49' W 074°11'0 0.0
2017-Dec-03 18:58N 39°49' W 074°11'0 0.0
2017-Dec-03 18:28N 39°49' W 074°11'0 0.0
2017-Dec-03 17:58N 39°49' W 074°11'0 0.0
2017-Dec-03 17:11N 39°49' W 074°11'0 0.0
2017-Dec-03 16:58N 39°49' W 074°11'0 0.0
2017-Dec-03 16:28N 39°49' W 074°11'2 4.2
2017-Dec-03 15:59N 39°48' W 074°09'816.2
2017-Dec-03 15:30N 39°40' W 074°07'0 0.7
2017-Dec-03 15:00N 39°40' W 074°07'2 3.1
2017-Dec-03 14:30N 39°41' W 074°06'1 1.2
2017-Dec-03 14:00N 39°41' W 074°06'2 4.3
2017-Dec-03 13:30N 39°44' W 074°05'1 2.3
2017-Dec-03 13:00N 39°45' W 074°05'0 0.3
2017-Dec-03 12:30N 39°45' W 074°05'0 0.6
2017-Dec-03 11:59N 39°45' W 074°05'5 9.5
2017-Dec-03 11:30N 39°48' W 074°09'2 3.1
2017-Dec-03 10:59N 39°49' W 074°11'0 0.0
2017-Dec-03 10:29N 39°49' W 074°11'0 0.0
2017-Dec-03 09:47N 39°49' W 074°11'0 0.0
2017-Dec-03 09:11N 39°49' W 074°11'0 0.0
2017-Dec-03 08:59N 39°49' W 074°11'0 0.0
2017-Dec-03 08:23N 39°49' W 074°11'0 0.0
2017-Dec-03 07:59N 39°49' W 074°11'0 0.0
2017-Dec-03 07:29N 39°49' W 074°11'0 0.0
2017-Dec-03 06:59N 39°49' W 074°11'0 0.0
2017-Dec-03 06:29N 39°49' W 074°11'0 0.0
2017-Dec-03 06:00N 39°49' W 074°11'0 0.0
2017-Dec-03 05:20N 39°49' W 074°11'0 0.0
2017-Dec-03 04:56N 39°49' W 074°11'0 0.0
2017-Dec-03 04:14N 39°49' W 074°11'0 0.0
2017-Dec-03 03:56N 39°49' W 074°11'0 0.0
2017-Dec-03 03:26N 39°49' W 074°11'0 0.0
2017-Dec-03 02:55N 39°49' W 074°11'0 0.0
2017-Dec-03 02:25N 39°49' W 074°11'0 0.0
2017-Dec-03 01:50N 39°49' W 074°11'0 0.0
2017-Dec-03 01:25N 39°49' W 074°11'0 0.0
2017-Dec-03 00:55N 39°49' W 074°11'0 0.0
2017-Dec-03 00:25N 39°49' W 074°11'0 0.0
2017-Dec-02 23:55N 39°49' W 074°11'0 0.0
2017-Dec-02 23:25N 39°49' W 074°11'0 0.0
2017-Dec-02 22:55N 39°49' W 074°11'0 0.0
2017-Dec-02 22:25N 39°49' W 074°11'0 0.0
2017-Dec-02 21:31N 39°49' W 074°11'0 0.0
2017-Dec-02 21:19N 39°49' W 074°11'0 0.0
2017-Dec-02 20:55N 39°49' W 074°11'0 0.0
2017-Dec-02 20:13N 39°49' W 074°11'0 0.0
2017-Dec-02 19:49N 39°49' W 074°11'1 2.4
2017-Dec-02 19:30N 39°49' W 074°10'1 2.6
2017-Dec-02 18:57N 39°48' W 074°11'1 1.9
2017-Dec-02 18:30N 39°48' W 074°10'713.5
2017-Dec-02 18:00N 39°42' W 074°06'1 1.8
2017-Dec-02 17:30N 39°41' W 074°05'0 0.9
2017-Dec-02 17:00N 39°41' W 074°05'1 1.9
2017-Dec-02 16:30N 39°42' W 074°05'9 2.6
2017-Dec-02 12:53N 39°51' W 074°05'922.5
2017-Dec-02 12:29N 39°42' W 074°06'1 2.1
2017-Dec-02 11:59N 39°41' W 074°06'612.0
2017-Dec-02 11:30N 39°47' W 074°07'3 5.9
2017-Dec-02 10:55N 39°49' W 074°11'0 0.0
2017-Dec-02 10:25N 39°49' W 074°11'0 0.0
2017-Dec-02 09:55N 39°49' W 074°11'0 0.0
2017-Dec-02 09:25N 39°49' W 074°11'0 0.0
2017-Dec-02 08:55N 39°49' W 074°11'0 0.0
2017-Dec-02 08:19N 39°49' W 074°11'0 0.0
2017-Dec-02 07:55N 39°49' W 074°11'0 0.0
2017-Dec-02 07:25N 39°49' W 074°11'0 0.0
2017-Dec-02 06:55N 39°49' W 074°11'0 0.0
2017-Dec-02 06:19N 39°49' W 074°11'0 0.0
2017-Dec-02 05:55N 39°49' W 074°11'0 0.0
2017-Dec-02 05:25N 39°49' W 074°11'0 0.0
2017-Dec-02 04:55N 39°49' W 074°11'0 0.0
2017-Dec-02 04:25N 39°49' W 074°11'0 0.0
2017-Dec-02 03:49N 39°49' W 074°11'0 0.0
2017-Dec-02 03:25N 39°49' W 074°11'0 0.0
2017-Dec-02 02:58N 39°49' W 074°11'0 0.0
2017-Dec-02 02:28N 39°49' W 074°11'0 0.0
2017-Dec-02 01:58N 39°49' W 074°11'0 0.0
2017-Dec-02 01:28N 39°49' W 074°11'0 0.0
2017-Dec-02 00:58N 39°49' W 074°11'0 0.0
2017-Dec-02 00:28N 39°49' W 074°11'0 0.0
2017-Dec-01 23:58N 39°49' W 074°11'0 0.0
2017-Dec-01 23:28N 39°49' W 074°11'0 0.0
2017-Dec-01 22:52N 39°49' W 074°11'0 0.0
2017-Dec-01 22:28N 39°49' W 074°11'0 0.0
2017-Dec-01 21:58N 39°49' W 074°11'0 0.0
2017-Dec-01 21:28N 39°49' W 074°11'0 0.0
2017-Dec-01 20:52N 39°49' W 074°11'0 0.0
2017-Dec-01 20:28N 39°49' W 074°11'0 0.0
2017-Dec-01 19:58N 39°49' W 074°11'0 0.0
2017-Dec-01 19:28N 39°49' W 074°11'0 0.0
2017-Dec-01 18:58N 39°49' W 074°11'0 0.0
2017-Dec-01 18:22N 39°49' W 074°11'0 0.0
2017-Dec-01 17:58N 39°49' W 074°11'0 0.0
2017-Dec-01 17:28N 39°49' W 074°11'0 0.0
2017-Dec-01 16:58N 39°49' W 074°11'4 8.9
2017-Dec-01 16:29N 39°46' W 074°07'4 9.1
2017-Dec-01 16:00N 39°41' W 074°05'1 1.0
2017-Dec-01 15:30N 39°42' W 074°05'1 2.0
2017-Dec-01 15:00N 39°41' W 074°05'0 0.8
2017-Dec-01 14:30N 39°41' W 074°05'6 2.3
2017-Dec-01 11:44N 39°47' W 074°04'210.6
2017-Dec-01 11:30N 39°47' W 074°07'3 4.5
2017-Dec-01 10:50N 39°49' W 074°11'0 0.0
2017-Dec-01 10:20N 39°49' W 074°11'0 0.0
2017-Dec-01 09:56N 39°49' W 074°11'0 0.0
2017-Dec-01 09:29N 39°49' W 074°11'0 0.0
2017-Dec-01 08:53N 39°49' W 074°11'0 0.0
2017-Dec-01 08:23N 39°49' W 074°11'0 0.0
2017-Dec-01 07:59N 39°49' W 074°11'0 0.0
2017-Dec-01 07:20N 39°49' W 074°11'0 0.0
2017-Dec-01 06:56N 39°49' W 074°11'0 0.0
2017-Dec-01 06:26N 39°49' W 074°11'0 0.0
2017-Dec-01 05:56N 39°49' W 074°11'0 0.0
2017-Dec-01 05:20N 39°49' W 074°11'0 0.0
2017-Dec-01 04:44N 39°49' W 074°11'0 0.0
2017-Dec-01 04:20N 39°49' W 074°11'0 0.0
2017-Dec-01 03:56N 39°49' W 074°11'0 0.0
2017-Dec-01 03:29N 39°49' W 074°11'0 0.0
2017-Dec-01 02:11N 39°49' W 074°11'0 0.0
2017-Nov-30 22:14N 39°49' W 074°11'0 0.0
2017-Nov-30 21:56N 39°49' W 074°11'0 0.0
2017-Nov-30 21:11N 39°49' W 074°11'0 0.0
2017-Nov-30 20:56N 39°49' W 074°11'0 0.0
2017-Nov-30 20:20N 39°49' W 074°11'0 0.0
2017-Nov-30 19:56N 39°49' W 074°11'0 0.0
2017-Nov-30 18:44N 39°49' W 074°11'0 0.0
2017-Nov-30 18:17N 39°49' W 074°11'0 0.0
2017-Nov-30 17:59N 39°49' W 074°11'0 0.0
2017-Nov-30 17:26N 39°49' W 074°11'0 0.0
2017-Nov-30 16:02N 39°49' W 074°11'0 0.0
2017-Nov-30 15:38N 39°49' W 074°11'0 0.0
2017-Nov-30 15:26N 39°49' W 074°11'0 0.0
2017-Nov-30 14:44N 39°49' W 074°11'0 0.0
2017-Nov-30 14:26N 39°49' W 074°11'0 0.0
2017-Nov-30 13:11N 39°49' W 074°11'0 0.0
2017-Nov-30 12:53N 39°49' W 074°11'0 0.0
2017-Nov-30 12:20N 39°49' W 074°11'0 0.0
2017-Nov-30 11:56N 39°49' W 074°11'0 0.0
2017-Nov-30 11:20N 39°49' W 074°11'0 0.0
2017-Nov-30 10:56N 39°49' W 074°11'0 0.0
2017-Nov-30 10:24N 39°49' W 074°11'0 0.0
2017-Nov-30 09:51N 39°49' W 074°11'0 0.0
2017-Nov-30 08:57N 39°49' W 074°11'0 0.0
2017-Nov-30 08:09N 39°49' W 074°11'0 0.0
2017-Nov-30 07:57N 39°49' W 074°11'0 0.0
2017-Nov-30 07:27N 39°49' W 074°11'0 0.0
2017-Nov-30 06:57N 39°49' W 074°11'0 0.0
2017-Nov-30 06:27N 39°49' W 074°11'0 0.0
2017-Nov-30 05:39N 39°49' W 074°11'0 0.0
2017-Nov-30 05:15N 39°49' W 074°11'0 0.0
2017-Nov-30 04:57N 39°49' W 074°11'0 0.0
2017-Nov-30 04:27N 39°49' W 074°11'0 0.0
2017-Nov-30 03:51N 39°49' W 074°11'0 0.0
2017-Nov-30 03:27N 39°49' W 074°11'0 0.0
2017-Nov-30 02:57N 39°49' W 074°11'0 0.0
2017-Nov-30 02:21N 39°49' W 074°11'0 0.0
2017-Nov-30 01:51N 39°49' W 074°11'0 0.0
2017-Nov-30 01:21N 39°49' W 074°11'0 0.0
2017-Nov-30 00:45N 39°49' W 074°11'0 0.0
2017-Nov-30 00:27N 39°49' W 074°11'0 0.0
2017-Nov-29 23:51N 39°49' W 074°11'0 0.0
2017-Nov-29 23:24N 39°49' W 074°11'0 0.0
2017-Nov-29 22:54N 39°49' W 074°11'0 0.0
2017-Nov-29 22:24N 39°49' W 074°11'0 0.0
2017-Nov-29 22:00N 39°49' W 074°11'0 0.0
2017-Nov-29 21:30N 39°49' W 074°11'0 0.0
2017-Nov-29 21:00N 39°49' W 074°11'0 0.0
2017-Nov-29 19:54N 39°49' W 074°11'0 0.0
2017-Nov-29 19:24N 39°49' W 074°11'0 0.0
2017-Nov-29 19:00N 39°49' W 074°11'0 0.0
2017-Nov-29 18:24N 39°49' W 074°11'0 0.0
2017-Nov-29 18:00N 39°49' W 074°11'0 0.0
2017-Nov-29 17:24N 39°49' W 074°11'0 0.0
2017-Nov-29 16:36N 39°49' W 074°11'0 0.0
2017-Nov-29 16:24N 39°49' W 074°11'0 0.0
2017-Nov-29 15:54N 39°49' W 074°11'0 0.0
2017-Nov-29 15:30N 39°49' W 074°11'0 0.0
2017-Nov-29 14:54N 39°49' W 074°11'2 3.8
2017-Nov-29 14:29N 39°47' W 074°09'4 8.9
2017-Nov-29 14:00N 39°49' W 074°04'611.6
2017-Nov-29 13:30N 39°54' W 074°01'2 2.4
2017-Nov-29 12:41N 39°52' W 074°02'0 2.5
2017-Nov-29 12:30N 39°52' W 074°02'610.2
2017-Nov-29 11:57N 39°47' W 074°05'5 4.6
2017-Nov-29 10:54N 39°49' W 074°11'0 0.0
2017-Nov-29 10:30N 39°49' W 074°11'0 0.0
2017-Nov-29 10:00N 39°49' W 074°11'0 0.0
2017-Nov-29 06:51N 39°49' W 074°11'0 0.0
2017-Nov-29 06:21N 39°49' W 074°11'0 0.0
2017-Nov-29 05:57N 39°49' W 074°11'0 0.0
2017-Nov-29 05:09N 39°49' W 074°11'0 0.0
2017-Nov-29 04:15N 39°49' W 074°11'0 0.0
2017-Nov-29 03:51N 39°49' W 074°11'0 0.0
2017-Nov-29 03:27N 39°49' W 074°11'0 0.0
2017-Nov-29 02:57N 39°49' W 074°11'0 0.0
2017-Nov-29 02:27N 39°49' W 074°11'0 0.0
2017-Nov-29 01:18N 39°49' W 074°11'0 0.0
2017-Nov-29 00:39N 39°49' W 074°11'0 0.0
2017-Nov-29 00:21N 39°49' W 074°11'0 0.0
2017-Nov-28 23:51N 39°49' W 074°11'0 0.0
2017-Nov-28 23:27N 39°49' W 074°11'0 0.0
2017-Nov-28 22:57N 39°49' W 074°11'0 0.0
2017-Nov-28 22:27N 39°49' W 074°11'0 0.0
2017-Nov-28 21:39N 39°49' W 074°11'0 0.0
2017-Nov-28 21:27N 39°49' W 074°11'0 0.0
2017-Nov-28 20:45N 39°49' W 074°11'0 0.0
2017-Nov-28 20:30N 39°49' W 074°11'0 0.0
2017-Nov-28 19:42N 39°49' W 074°11'0 0.0
2017-Nov-28 18:48N 39°49' W 074°11'0 0.0
2017-Nov-28 18:30N 39°49' W 074°11'0 0.0
2017-Nov-28 17:54N 39°49' W 074°11'0 0.0
2017-Nov-28 17:30N 39°49' W 074°11'0 0.0
2017-Nov-28 16:57N 39°49' W 074°11'0 0.0
2017-Nov-28 16:27N 39°49' W 074°11'0 0.0
2017-Nov-28 15:57N 39°49' W 074°11'  

Dump ship's entire track history